sensor_id;sensor_type;location;lat;lon;timestamp;pressure;altitude;pressure_sealevel;temperature;humidity
30302;BME280;17111;52.130;5.028;2023-01-26T00:01:16;102636.56;;;13.15;48.42
30302;BME280;17111;52.130;5.028;2023-01-26T00:03:43;102638.28;;;13.16;48.60
30302;BME280;17111;52.130;5.028;2023-01-26T00:06:11;102635.53;;;13.18;48.39
30302;BME280;17111;52.130;5.028;2023-01-26T00:08:44;102637.34;;;13.17;48.35
30302;BME280;17111;52.130;5.028;2023-01-26T00:11:13;102632.00;;;13.17;48.30
30302;BME280;17111;52.130;5.028;2023-01-26T00:13:40;102633.81;;;13.17;48.29
30302;BME280;17111;52.130;5.028;2023-01-26T00:16:13;102643.59;;;13.16;48.26
30302;BME280;17111;52.130;5.028;2023-01-26T00:18:40;102645.31;;;13.17;48.55
30302;BME280;17111;52.130;5.028;2023-01-26T00:21:11;102640.00;;;13.17;48.36
30302;BME280;17111;52.130;5.028;2023-01-26T00:23:38;102640.00;;;13.17;48.35
30302;BME280;17111;52.130;5.028;2023-01-26T00:26:06;102624.03;;;13.17;48.26
30302;BME280;17111;52.130;5.028;2023-01-26T00:28:33;102621.44;;;13.16;48.35
30302;BME280;17111;52.130;5.028;2023-01-26T00:31:25;102623.31;;;13.14;48.28
30302;BME280;17111;52.130;5.028;2023-01-26T00:33:54;102626.78;;;13.16;48.16
30302;BME280;17111;52.130;5.028;2023-01-26T00:36:20;102618.78;;;13.16;48.54
30302;BME280;17111;52.130;5.028;2023-01-26T00:38:47;102613.47;;;13.16;48.14
30302;BME280;17111;52.130;5.028;2023-01-26T00:41:14;102613.38;;;13.17;48.56
30302;BME280;17111;52.130;5.028;2023-01-26T00:44:00;102606.34;;;13.16;48.48
30302;BME280;17111;52.130;5.028;2023-01-26T00:46:26;102605.47;;;13.16;48.41
30302;BME280;17111;52.130;5.028;2023-01-26T00:48:53;102594.88;;;13.14;48.37
30302;BME280;17111;52.130;5.028;2023-01-26T00:51:20;102596.63;;;13.15;48.24
30302;BME280;17111;52.130;5.028;2023-01-26T00:53:46;102590.38;;;13.16;48.35
30302;BME280;17111;52.130;5.028;2023-01-26T00:56:13;102592.06;;;13.17;48.45
30302;BME280;17111;52.130;5.028;2023-01-26T00:58:40;102591.13;;;13.18;48.31
30302;BME280;17111;52.130;5.028;2023-01-26T01:01:07;102593.72;;;13.20;48.19
30302;BME280;17111;52.130;5.028;2023-01-26T01:03:34;102583.09;;;13.20;48.48
30302;BME280;17111;52.130;5.028;2023-01-26T01:06:00;102589.25;;;13.20;48.79
30302;BME280;17111;52.130;5.028;2023-01-26T01:08:27;102589.16;;;13.22;48.38
30302;BME280;17111;52.130;5.028;2023-01-26T01:11:07;102578.63;;;13.20;48.39
30302;BME280;17111;52.130;5.028;2023-01-26T01:13:35;102581.28;;;13.20;48.62
30302;BME280;17111;52.130;5.028;2023-01-26T01:16:06;102591.06;;;13.20;48.60
30302;BME280;17111;52.130;5.028;2023-01-26T01:18:34;102579.56;;;13.19;48.42
30302;BME280;17111;52.130;5.028;2023-01-26T01:21:12;102577.81;;;13.18;48.89
30302;BME280;17111;52.130;5.028;2023-01-26T01:23:39;102572.50;;;13.18;48.28
30302;BME280;17111;52.130;5.028;2023-01-26T01:26:06;102576.03;;;13.19;48.37
30302;BME280;17111;52.130;5.028;2023-01-26T01:28:34;102581.44;;;13.17;48.15
30302;BME280;17111;52.130;5.028;2023-01-26T01:31:05;102577.06;;;13.16;48.38
30302;BME280;17111;52.130;5.028;2023-01-26T01:33:32;102581.53;;;13.16;48.54
30302;BME280;17111;52.130;5.028;2023-01-26T01:36:01;102583.31;;;13.15;48.54
30302;BME280;17111;52.130;5.028;2023-01-26T01:38:29;102581.53;;;13.16;48.29
30302;BME280;17111;52.130;5.028;2023-01-26T01:40:56;102573.53;;;13.16;48.16
30302;BME280;17111;52.130;5.028;2023-01-26T01:43:23;102572.69;;;13.15;48.48
30302;BME280;17111;52.130;5.028;2023-01-26T01:45:51;102581.53;;;13.16;48.17
30302;BME280;17111;52.130;5.028;2023-01-26T01:48:37;102581.56;;;13.14;48.59
30302;BME280;17111;52.130;5.028;2023-01-26T01:51:13;102574.47;;;13.15;48.53
30302;BME280;17111;52.130;5.028;2023-01-26T01:53:44;102578.84;;;13.16;48.37
30302;BME280;17111;52.130;5.028;2023-01-26T01:56:16;102577.91;;;13.17;48.28
30302;BME280;17111;52.130;5.028;2023-01-26T01:58:48;102581.44;;;13.17;48.59
30302;BME280;17111;52.130;5.028;2023-01-26T02:01:16;102576.91;;;13.19;48.45
30302;BME280;17111;52.130;5.028;2023-01-26T02:03:44;102576.91;;;13.19;48.45
30302;BME280;17111;52.130;5.028;2023-01-26T02:06:14;102578.63;;;13.20;48.39
30302;BME280;17111;52.130;5.028;2023-01-26T02:11:39;102569.78;;;13.20;48.51
30302;BME280;17111;52.130;5.028;2023-01-26T02:14:08;102579.38;;;13.22;48.55
30302;BME280;17111;52.130;5.028;2023-01-26T02:16:36;102576.72;;;13.22;48.78
30302;BME280;17111;52.130;5.028;2023-01-26T02:19:13;102569.69;;;13.21;48.39
30302;BME280;17111;52.130;5.028;2023-01-26T02:21:46;102578.50;;;13.23;48.44
30302;BME280;17111;52.130;5.028;2023-01-26T02:24:21;102574.06;;;13.22;48.53
30302;BME280;17111;52.130;5.028;2023-01-26T02:26:52;102577.63;;;13.23;48.64
30302;BME280;17111;52.130;5.028;2023-01-26T02:29:20;102574.97;;;13.23;48.74
30302;BME280;17111;52.130;5.028;2023-01-26T02:31:47;102577.66;;;13.21;48.54
30302;BME280;17111;52.130;5.028;2023-01-26T02:34:14;102566.16;;;13.21;48.74
30302;BME280;17111;52.130;5.028;2023-01-26T02:36:41;102567.97;;;13.20;48.61
30302;BME280;17111;52.130;5.028;2023-01-26T02:41:46;102568.81;;;13.21;48.82
30302;BME280;17111;52.130;5.028;2023-01-26T02:44:33;102573.28;;;13.20;48.40
30302;BME280;17111;52.130;5.028;2023-01-26T02:46:59;102572.44;;;13.20;48.89
30302;BME280;17111;52.130;5.028;2023-01-26T02:49:26;102575.94;;;13.20;48.86
30302;BME280;17111;52.130;5.028;2023-01-26T02:52:12;102573.19;;;13.22;48.33
30302;BME280;17111;52.130;5.028;2023-01-26T02:54:39;102588.31;;;13.21;48.90
30302;BME280;17111;52.130;5.028;2023-01-26T02:57:24;102584.69;;;13.22;48.94
30302;BME280;17111;52.130;5.028;2023-01-26T02:59:51;102576.69;;;13.24;48.74
30302;BME280;17111;52.130;5.028;2023-01-26T03:02:18;102582.00;;;13.24;48.93
30302;BME280;17111;52.130;5.028;2023-01-26T03:04:44;102588.19;;;13.24;49.09
30302;BME280;17111;52.130;5.028;2023-01-26T03:07:11;102577.44;;;13.26;49.11
30302;BME280;17111;52.130;5.028;2023-01-26T03:09:38;102582.72;;;13.27;48.87
30302;BME280;17111;52.130;5.028;2023-01-26T03:12:04;102584.44;;;13.28;49.07
30302;BME280;17111;52.130;5.028;2023-01-26T03:14:31;102572.84;;;13.29;48.58
30302;BME280;17111;52.130;5.028;2023-01-26T03:16:57;102584.34;;;13.30;48.83
30302;BME280;17111;52.130;5.028;2023-01-26T03:19:24;102581.63;;;13.31;49.05
30302;BME280;17111;52.130;5.028;2023-01-26T03:22:10;102574.50;;;13.32;48.93
30302;BME280;17111;52.130;5.028;2023-01-26T03:24:55;102571.81;;;13.32;48.96
30302;BME280;17111;52.130;5.028;2023-01-26T03:27:45;102575.44;;;13.31;49.29
30302;BME280;17111;52.130;5.028;2023-01-26T03:30:14;102569.16;;;13.32;48.93
30302;BME280;17111;52.130;5.028;2023-01-26T03:32:42;102568.31;;;13.31;49.14
30302;BME280;17111;52.130;5.028;2023-01-26T03:35:09;102572.78;;;13.31;49.08
30302;BME280;17111;52.130;5.028;2023-01-26T03:37:43;102571.03;;;13.30;49.18
30302;BME280;17111;52.130;5.028;2023-01-26T03:40:12;102579.81;;;13.32;49.07
30302;BME280;17111;52.130;5.028;2023-01-26T03:42:58;102581.63;;;13.31;48.81
30302;BME280;17111;52.130;5.028;2023-01-26T03:45:43;102574.50;;;13.32;48.86
30302;BME280;17111;52.130;5.028;2023-01-26T03:48:28;102571.88;;;13.30;49.29
30302;BME280;17111;52.130;5.028;2023-01-26T03:51:14;102570.97;;;13.31;49.40
30302;BME280;17111;52.130;5.028;2023-01-26T03:53:59;102578.16;;;13.29;49.50
30302;BME280;17111;52.130;5.028;2023-01-26T03:56:44;102575.44;;;13.31;49.24
30302;BME280;17111;52.130;5.028;2023-01-26T03:59:10;102584.28;;;13.31;49.25
30302;BME280;17111;52.130;5.028;2023-01-26T04:01:42;102578.09;;;13.31;49.30
30302;BME280;17111;52.130;5.028;2023-01-26T04:04:28;102577.22;;;13.30;49.14
30302;BME280;17111;52.130;5.028;2023-01-26T04:07:14;102582.53;;;13.30;49.26
30302;BME280;17111;52.130;5.028;2023-01-26T04:09:59;102570.09;;;13.31;49.54
30302;BME280;17111;52.130;5.028;2023-01-26T04:12:26;102579.88;;;13.30;49.31
30302;BME280;17111;52.130;5.028;2023-01-26T04:14:52;102579.00;;;13.30;49.49
30302;BME280;17111;52.130;5.028;2023-01-26T04:17:37;102585.19;;;13.30;49.57
30302;BME280;17111;52.130;5.028;2023-01-26T04:20:22;102583.44;;;13.31;49.43
30302;BME280;17111;52.130;5.028;2023-01-26T04:23:16;102575.50;;;13.29;49.52
30302;BME280;17111;52.130;5.028;2023-01-26T04:25:43;102579.00;;;13.30;50.21
30302;BME280;17111;52.130;5.028;2023-01-26T04:28:09;102577.22;;;13.30;49.61
30302;BME280;17111;52.130;5.028;2023-01-26T04:30:36;102580.75;;;13.31;49.51
30302;BME280;17111;52.130;5.028;2023-01-26T04:33:02;102578.09;;;13.31;49.45
30302;BME280;17111;52.130;5.028;2023-01-26T04:35:29;102578.88;;;13.33;49.44
30302;BME280;17111;52.130;5.028;2023-01-26T04:37:56;102579.72;;;13.33;49.46
30302;BME280;17111;52.130;5.028;2023-01-26T04:40:22;102577.06;;;13.33;49.65
30302;BME280;17111;52.130;5.028;2023-01-26T04:42:49;102576.09;;;13.34;49.69
30302;BME280;17111;52.130;5.028;2023-01-26T04:45:15;102573.38;;;13.36;49.47
30302;BME280;17111;52.130;5.028;2023-01-26T04:47:42;102576.91;;;13.37;49.83
30302;BME280;17111;52.130;5.028;2023-01-26T04:50:09;102565.31;;;13.38;49.59
30302;BME280;17111;52.130;5.028;2023-01-26T04:52:36;102570.56;;;13.39;49.43
30302;BME280;17111;52.130;5.028;2023-01-26T04:55:03;102569.63;;;13.40;49.39
30302;BME280;17111;52.130;5.028;2023-01-26T04:57:29;102561.63;;;13.40;49.71
30302;BME280;17111;52.130;5.028;2023-01-26T04:59:56;102561.63;;;13.40;49.41
30302;BME280;17111;52.130;5.028;2023-01-26T05:02:22;102564.19;;;13.42;49.65
30302;BME280;17111;52.130;5.028;2023-01-26T05:04:49;102557.94;;;13.43;50.16
30302;BME280;17111;52.130;5.028;2023-01-26T05:07:15;102560.69;;;13.41;49.80
30302;BME280;17111;52.130;5.028;2023-01-26T05:09:42;102552.69;;;13.41;49.91
30302;BME280;17111;52.130;5.028;2023-01-26T05:12:08;102548.22;;;13.42;49.55
30302;BME280;17111;52.130;5.028;2023-01-26T05:14:53;102556.22;;;13.42;49.81
30302;BME280;17111;52.130;5.028;2023-01-26T05:17:20;102557.94;;;13.43;49.83
30302;BME280;17111;52.130;5.028;2023-01-26T05:19:46;102556.22;;;13.42;49.65
30302;BME280;17111;52.130;5.028;2023-01-26T05:22:13;102553.53;;;13.42;49.79
30302;BME280;17111;52.130;5.028;2023-01-26T05:24:40;102553.53;;;13.42;49.85
30302;BME280;17111;52.130;5.028;2023-01-26T05:27:06;102565.06;;;13.42;49.77
30302;BME280;17111;52.130;5.028;2023-01-26T05:29:49;102565.06;;;13.42;49.94
30302;BME280;17111;52.130;5.028;2023-01-26T05:32:16;102565.06;;;13.42;49.92
30302;BME280;17111;52.130;5.028;2023-01-26T05:34:43;102570.38;;;13.42;49.93
30302;BME280;17111;52.130;5.028;2023-01-26T05:37:10;102565.94;;;13.43;50.23
30302;BME280;17111;52.130;5.028;2023-01-26T05:39:40;102568.59;;;13.43;49.85
30302;BME280;17111;52.130;5.028;2023-01-26T05:42:06;102569.47;;;13.43;49.93
30302;BME280;17111;52.130;5.028;2023-01-26T05:44:33;102569.47;;;13.43;49.95
30302;BME280;17111;52.130;5.028;2023-01-26T05:46:59;102566.78;;;13.43;50.19
30302;BME280;17111;52.130;5.028;2023-01-26T05:49:26;102566.78;;;13.43;49.65
30302;BME280;17111;52.130;5.028;2023-01-26T05:51:52;102568.59;;;13.43;50.25
30302;BME280;17111;52.130;5.028;2023-01-26T05:54:19;102578.31;;;13.44;50.06
30302;BME280;17111;52.130;5.028;2023-01-26T05:56:45;102580.03;;;13.45;50.19
30302;BME280;17111;52.130;5.028;2023-01-26T05:59:13;102572.97;;;13.44;50.00
30302;BME280;17111;52.130;5.028;2023-01-26T06:01:39;102567.66;;;13.44;49.52
30302;BME280;17111;52.130;5.028;2023-01-26T06:04:06;102570.31;;;13.44;49.92
30302;BME280;17111;52.130;5.028;2023-01-26T06:06:33;102577.44;;;13.43;49.82
30302;BME280;17111;52.130;5.028;2023-01-26T06:08:59;102574.78;;;13.43;50.29
30302;BME280;17111;52.130;5.028;2023-01-26T06:11:26;102572.03;;;13.45;50.11
30302;BME280;17111;52.130;5.028;2023-01-26T06:13:52;102572.03;;;13.45;50.18
30302;BME280;17111;52.130;5.028;2023-01-26T06:16:19;102579.16;;;13.44;50.63
30302;BME280;17111;52.130;5.028;2023-01-26T06:18:48;102582.69;;;13.45;50.19
30302;BME280;17111;52.130;5.028;2023-01-26T06:21:15;102585.34;;;13.45;50.52
30302;BME280;17111;52.130;5.028;2023-01-26T06:23:42;102588.00;;;13.45;50.27
30302;BME280;17111;52.130;5.028;2023-01-26T06:26:09;102588.88;;;13.45;49.96
30302;BME280;17111;52.130;5.028;2023-01-26T06:28:36;102582.69;;;13.45;50.16
30302;BME280;17111;52.130;5.028;2023-01-26T06:31:04;102580.03;;;13.45;50.12
30302;BME280;17111;52.130;5.028;2023-01-26T06:33:32;102592.47;;;13.44;50.31
30302;BME280;17111;52.130;5.028;2023-01-26T06:36:07;102586.31;;;13.44;50.23
30302;BME280;17111;52.130;5.028;2023-01-26T06:38:43;102586.22;;;13.45;50.10
30302;BME280;17111;52.130;5.028;2023-01-26T06:41:10;102591.53;;;13.45;50.27
30302;BME280;17111;52.130;5.028;2023-01-26T06:43:37;102597.72;;;13.46;50.12
30302;BME280;17111;52.130;5.028;2023-01-26T06:46:04;102595.00;;;13.47;50.13
30302;BME280;17111;52.130;5.028;2023-01-26T06:48:33;102602.03;;;13.48;50.19
30302;BME280;17111;52.130;5.028;2023-01-26T06:51:36;102602.88;;;13.49;50.28
30302;BME280;17111;52.130;5.028;2023-01-26T06:53:53;102603.69;;;13.51;50.15
30302;BME280;17111;52.130;5.028;2023-01-26T06:56:21;102604.44;;;13.53;50.21
30302;BME280;17111;52.130;5.028;2023-01-26T06:58:47;102609.78;;;13.53;50.14
30302;BME280;17111;52.130;5.028;2023-01-26T07:01:20;102615.97;;;13.53;50.11
30302;BME280;17111;52.130;5.028;2023-01-26T07:03:48;102614.25;;;13.52;50.09
30302;BME280;17111;52.130;5.028;2023-01-26T07:06:15;102620.44;;;13.53;49.94
30302;BME280;17111;52.130;5.028;2023-01-26T07:08:41;102618.63;;;13.53;50.31
30302;BME280;17111;52.130;5.028;2023-01-26T07:11:08;102618.63;;;13.53;50.08
30302;BME280;17111;52.130;5.028;2023-01-26T07:13:35;102609.78;;;13.53;49.98
30302;BME280;17111;52.130;5.028;2023-01-26T07:16:07;102610.63;;;13.53;50.30
30302;BME280;17111;52.130;5.028;2023-01-26T07:18:34;102615.97;;;13.53;50.61
30302;BME280;17111;52.130;5.028;2023-01-26T07:21:04;102619.47;;;13.54;50.12
30302;BME280;17111;52.130;5.028;2023-01-26T07:23:31;102626.63;;;13.53;50.09
30302;BME280;17111;52.130;5.028;2023-01-26T07:26:00;102625.75;;;13.53;50.32
30302;BME280;17111;52.130;5.028;2023-01-26T07:28:26;102631.88;;;13.55;49.95
30302;BME280;17111;52.130;5.028;2023-01-26T07:31:03;102633.75;;;13.53;50.23
30302;BME280;17111;52.130;5.028;2023-01-26T07:33:32;102631.94;;;13.53;50.31
30302;BME280;17111;52.130;5.028;2023-01-26T07:35:59;102639.00;;;13.54;50.16
30302;BME280;17111;52.130;5.028;2023-01-26T07:38:26;102637.22;;;13.55;50.54
30302;BME280;17111;52.130;5.028;2023-01-26T07:40:56;102639.94;;;13.53;50.00
30302;BME280;17111;52.130;5.028;2023-01-26T07:43:23;102645.22;;;13.55;50.29
30302;BME280;17111;52.130;5.028;2023-01-26T07:45:52;102646.97;;;13.54;50.31
30302;BME280;17111;52.130;5.028;2023-01-26T07:48:20;102645.22;;;13.55;50.24
30302;BME280;17111;52.130;5.028;2023-01-26T07:50:49;102643.47;;;13.54;49.92
30302;BME280;17111;52.130;5.028;2023-01-26T07:53:16;102644.25;;;13.56;50.30
30302;BME280;17111;52.130;5.028;2023-01-26T07:55:48;102642.53;;;13.55;50.36
30302;BME280;17111;52.130;5.028;2023-01-26T07:58:14;102646.06;;;13.55;50.54
30302;BME280;17111;52.130;5.028;2023-01-26T08:00:41;102646.06;;;13.55;50.29
30302;BME280;17111;52.130;5.028;2023-01-26T08:03:08;102648.63;;;13.57;50.32
30302;BME280;17111;52.130;5.028;2023-01-26T08:05:34;102648.72;;;13.55;50.31
30302;BME280;17111;52.130;5.028;2023-01-26T08:08:02;102655.69;;;13.58;50.24
30302;BME280;17111;52.130;5.028;2023-01-26T08:10:29;102660.16;;;13.57;50.30
30302;BME280;17111;52.130;5.028;2023-01-26T08:12:59;102657.44;;;13.59;50.33
30302;BME280;17111;52.130;5.028;2023-01-26T08:15:27;102659.19;;;13.58;49.96
30302;BME280;17111;52.130;5.028;2023-01-26T08:17:54;102654.75;;;13.59;50.32
30302;BME280;17111;52.130;5.028;2023-01-26T08:20:21;102658.19;;;13.61;50.08
30302;BME280;17111;52.130;5.028;2023-01-26T08:22:47;102660.75;;;13.63;49.83
30302;BME280;17111;52.130;5.028;2023-01-26T08:25:14;102661.66;;;13.63;50.57
30302;BME280;17111;52.130;5.028;2023-01-26T08:27:41;102667.75;;;13.65;50.11
30302;BME280;17111;52.130;5.028;2023-01-26T08:30:08;102662.41;;;13.65;50.42
30302;BME280;17111;52.130;5.028;2023-01-26T08:32:35;102669.47;;;13.66;50.29
30302;BME280;17111;52.130;5.028;2023-01-26T08:35:01;102663.22;;;13.67;50.43
30302;BME280;17111;52.130;5.028;2023-01-26T08:37:28;102663.97;;;13.69;50.01
30302;BME280;17111;52.130;5.028;2023-01-26T08:39:55;102673.69;;;13.70;50.24
30302;BME280;17111;52.130;5.028;2023-01-26T08:42:21;102679.88;;;13.71;50.17
30302;BME280;17111;52.130;5.028;2023-01-26T08:44:48;102674.53;;;13.71;50.34
30302;BME280;17111;52.130;5.028;2023-01-26T08:47:15;102673.63;;;13.72;50.21
30302;BME280;17111;52.130;5.028;2023-01-26T08:49:41;102680.66;;;13.73;50.19
30302;BME280;17111;52.130;5.028;2023-01-26T08:52:08;102680.56;;;13.74;49.98
30302;BME280;17111;52.130;5.028;2023-01-26T08:54:34;102682.31;;;13.75;49.86
30302;BME280;17111;52.130;5.028;2023-01-26T08:57:01;102687.66;;;13.75;50.27
30302;BME280;17111;52.130;5.028;2023-01-26T08:59:27;102684.91;;;13.77;50.22
30302;BME280;17111;52.130;5.028;2023-01-26T09:01:54;102683.09;;;13.77;50.26
30302;BME280;17111;52.130;5.028;2023-01-26T09:04:21;102694.53;;;13.79;50.52
30302;BME280;17111;52.130;5.028;2023-01-26T09:06:47;102687.41;;;13.80;50.45
30302;BME280;17111;52.130;5.028;2023-01-26T09:09:14;102687.31;;;13.81;50.29
30302;BME280;17111;52.130;5.028;2023-01-26T09:11:41;102693.44;;;13.83;50.28
30302;BME280;17111;52.130;5.028;2023-01-26T09:14:08;102689.81;;;13.85;50.15
30302;BME280;17111;52.130;5.028;2023-01-26T09:16:34;102698.59;;;13.87;50.34
30302;BME280;17111;52.130;5.028;2023-01-26T09:19:01;102695.00;;;13.88;50.21
30302;BME280;17111;52.130;5.028;2023-01-26T09:21:27;102696.72;;;13.89;49.98
30302;BME280;17111;52.130;5.028;2023-01-26T09:23:55;102705.47;;;13.91;50.06
30302;BME280;17111;52.130;5.028;2023-01-26T09:26:22;102701.91;;;13.92;50.16
30302;BME280;17111;52.130;5.028;2023-01-26T09:28:50;102710.75;;;13.92;50.52
30302;BME280;17111;52.130;5.028;2023-01-26T09:31:17;102708.94;;;13.93;50.22
30302;BME280;17111;52.130;5.028;2023-01-26T09:33:44;102708.84;;;13.94;50.20
30302;BME280;17111;52.130;5.028;2023-01-26T09:36:11;102710.59;;;13.95;50.08
30302;BME280;17111;52.130;5.028;2023-01-26T09:38:38;102710.50;;;13.97;50.02
30302;BME280;17111;52.130;5.028;2023-01-26T09:43:56;102717.47;;;13.99;50.14
30302;BME280;17111;52.130;5.028;2023-01-26T09:49:23;102719.09;;;14.02;50.24
30302;BME280;17111;52.130;5.028;2023-01-26T09:52:05;102713.63;;;14.05;49.78
30302;BME280;17111;52.130;5.028;2023-01-26T09:54:50;102718.84;;;14.06;50.12
30302;BME280;17111;52.130;5.028;2023-01-26T10:00:25;102709.59;;;14.14;50.67
30302;BME280;17111;52.130;5.028;2023-01-26T10:06:10;102725.19;;;14.21;50.48
30302;BME280;17111;52.130;5.028;2023-01-26T10:08:41;102726.75;;;14.25;50.34
30302;BME280;17111;52.130;5.028;2023-01-26T10:11:23;102722.19;;;14.27;49.63
30302;BME280;17111;52.130;5.028;2023-01-26T10:13:55;102719.28;;;14.32;50.00
30302;BME280;17111;52.130;5.028;2023-01-26T10:16:22;102719.97;;;14.36;49.84
30302;BME280;17111;52.130;5.028;2023-01-26T10:18:56;102718.75;;;14.41;49.97
30302;BME280;17111;52.130;5.028;2023-01-26T10:21:29;102717.56;;;14.47;49.13
30302;BME280;17111;52.130;5.028;2023-01-26T10:23:59;102704.69;;;14.55;50.16
30302;BME280;17111;52.130;5.028;2023-01-26T10:26:29;102706.94;;;14.63;50.44
30302;BME280;17111;52.130;5.028;2023-01-26T10:28:57;102710.22;;;14.68;50.51
30302;BME280;17111;52.130;5.028;2023-01-26T10:31:27;102708.06;;;14.74;51.14
30302;BME280;17111;52.130;5.028;2023-01-26T10:33:57;102704.19;;;14.80;50.42
30302;BME280;17111;52.130;5.028;2023-01-26T10:36:28;102717.19;;;14.86;51.55
30302;BME280;17111;52.130;5.028;2023-01-26T10:39:05;102707.97;;;14.92;51.56
30302;BME280;17111;52.130;5.028;2023-01-26T10:41:33;102721.81;;;14.98;51.03
30302;BME280;17111;52.130;5.028;2023-01-26T10:46:39;102730.94;;;15.10;51.63
30302;BME280;17111;52.130;5.028;2023-01-26T10:51:38;102724.97;;;15.21;50.64
30302;BME280;17111;52.130;5.028;2023-01-26T10:56:48;102724.34;;;15.31;51.29
30302;BME280;17111;52.130;5.028;2023-01-26T11:01:56;102722.84;;;15.42;51.01
30302;BME280;17111;52.130;5.028;2023-01-26T11:04:23;102728.78;;;15.47;51.08
30302;BME280;17111;52.130;5.028;2023-01-26T11:06:51;102730.31;;;15.51;51.29
30302;BME280;17111;52.130;5.028;2023-01-26T11:09:27;102726.44;;;15.57;50.01
30302;BME280;17111;52.130;5.028;2023-01-26T11:12:01;102724.25;;;15.63;49.81
30302;BME280;17111;52.130;5.028;2023-01-26T11:14:30;102725.63;;;15.70;50.27
30302;BME280;17111;52.130;5.028;2023-01-26T11:17:18;102712.84;;;15.75;49.52
30302;BME280;17111;52.130;5.028;2023-01-26T11:25:59;102706.38;;;15.94;48.95
30302;BME280;17111;52.130;5.028;2023-01-26T11:28:46;102704.38;;;15.97;49.63
30302;BME280;17111;52.130;5.028;2023-01-26T11:31:36;102710.31;;;16.02;48.56
30302;BME280;17111;52.130;5.028;2023-01-26T11:34:23;102713.66;;;16.06;48.34
30302;BME280;17111;52.130;5.028;2023-01-26T11:39:53;102705.03;;;16.15;48.13
30302;BME280;17111;52.130;5.028;2023-01-26T11:42:40;102712.03;;;16.18;48.95
30302;BME280;17111;52.130;5.028;2023-01-26T11:46:34;102707.44;;;16.20;49.01
30302;BME280;17111;52.130;5.028;2023-01-26T11:54:02;102705.81;;;16.32;48.24
30302;BME280;17111;52.130;5.028;2023-01-26T11:56:49;102701.97;;;16.36;48.02
30302;BME280;17111;52.130;5.028;2023-01-26T11:59:33;102703.50;;;16.40;48.47
30302;BME280;17111;52.130;5.028;2023-01-26T12:02:14;102694.31;;;16.44;47.89
30302;BME280;17111;52.130;5.028;2023-01-26T12:04:45;102701.31;;;16.46;47.99
30302;BME280;17111;52.130;5.028;2023-01-26T12:07:28;102687.72;;;16.49;47.94
30302;BME280;17111;52.130;5.028;2023-01-26T12:09:57;102687.53;;;16.52;47.75
30302;BME280;17111;52.130;5.028;2023-01-26T12:20:37;102676.22;;;16.62;47.77
30302;BME280;17111;52.130;5.028;2023-01-26T12:25:45;102676.03;;;16.65;47.65
30302;BME280;17111;52.130;5.028;2023-01-26T12:33:32;102672.19;;;16.69;47.29
30302;BME280;17111;52.130;5.028;2023-01-26T12:39:02;102662.16;;;16.72;47.12
30302;BME280;17111;52.130;5.028;2023-01-26T12:42:09;102656.72;;;16.74;46.86
30302;BME280;17111;52.130;5.028;2023-01-26T12:47:17;102660.25;;;16.74;46.34
30302;BME280;17111;52.130;5.028;2023-01-26T12:49:50;102642.38;;;16.75;46.66
30302;BME280;17111;52.130;5.028;2023-01-26T12:54:53;102643.22;;;16.75;47.00
30302;BME280;17111;52.130;5.028;2023-01-26T12:57:24;102638.63;;;16.77;47.31
30302;BME280;17111;52.130;5.028;2023-01-26T12:59:52;102638.63;;;16.77;46.95
30302;BME280;17111;52.130;5.028;2023-01-26T13:02:29;102639.50;;;16.78;47.25
30302;BME280;17111;52.130;5.028;2023-01-26T13:04:57;102647.41;;;16.80;46.48
30302;BME280;17111;52.130;5.028;2023-01-26T13:07:38;102645.69;;;16.78;46.76
30302;BME280;17111;52.130;5.028;2023-01-26T13:13:00;102638.44;;;16.81;46.71
30302;BME280;17111;52.130;5.028;2023-01-26T13:15:46;102634.78;;;16.82;46.78
30302;BME280;17111;52.130;5.028;2023-01-26T13:18:16;102632.19;;;16.80;46.57
30302;BME280;17111;52.130;5.028;2023-01-26T13:20:47;102636.63;;;16.81;46.98
30302;BME280;17111;52.130;5.028;2023-01-26T13:23:37;102634.03;;;16.80;46.23
30302;BME280;17111;52.130;5.028;2023-01-26T13:26:14;102633.09;;;16.81;46.94
30302;BME280;17111;52.130;5.028;2023-01-26T13:28:42;102637.34;;;16.83;46.76
30302;BME280;17111;52.130;5.028;2023-01-26T13:31:10;102637.28;;;16.85;46.84
30302;BME280;17111;52.130;5.028;2023-01-26T13:33:39;102640.81;;;16.85;46.61
30302;BME280;17111;52.130;5.028;2023-01-26T13:36:16;102645.31;;;16.85;46.64
30302;BME280;17111;52.130;5.028;2023-01-26T13:38:54;102637.28;;;16.85;46.23
30302;BME280;17111;52.130;5.028;2023-01-26T13:41:23;102640.81;;;16.85;46.91
30302;BME280;17111;52.130;5.028;2023-01-26T13:44:19;102639.94;;;16.85;47.10
30302;BME280;17111;52.130;5.028;2023-01-26T13:47:04;102646.16;;;16.85;46.76
30302;BME280;17111;52.130;5.028;2023-01-26T13:49:37;102639.94;;;16.85;46.51
30302;BME280;17111;52.130;5.028;2023-01-26T13:52:16;102645.31;;;16.85;47.10
30302;BME280;17111;52.130;5.028;2023-01-26T13:54:44;102639.72;;;16.88;47.22
30302;BME280;17111;52.130;5.028;2023-01-26T13:57:18;102647.69;;;16.89;47.00
30302;BME280;17111;52.130;5.028;2023-01-26T13:59:54;102646.72;;;16.90;46.91
30302;BME280;17111;52.130;5.028;2023-01-26T14:02:27;102652.81;;;16.92;46.98
30302;BME280;17111;52.130;5.028;2023-01-26T14:04:57;102649.19;;;16.93;46.50
30302;BME280;17111;52.130;5.028;2023-01-26T14:07:32;102644.69;;;16.94;46.52
30302;BME280;17111;52.130;5.028;2023-01-26T14:10:02;102647.38;;;16.94;47.08
30302;BME280;17111;52.130;5.028;2023-01-26T14:12:35;102645.66;;;16.93;46.40
30302;BME280;17111;52.130;5.028;2023-01-26T14:15:15;102646.59;;;16.92;46.54
30302;BME280;17111;52.130;5.028;2023-01-26T14:17:48;102646.59;;;16.92;46.40
30302;BME280;17111;52.130;5.028;2023-01-26T14:20:34;102631.59;;;16.89;46.39